createdAt,value
2023-04-08T00:00:41.333Z,1018.31
2023-04-08T00:01:42.066Z,1018.35
2023-04-08T00:02:41.401Z,1018.28
2023-04-08T00:03:42.109Z,1018.30
2023-04-08T00:04:42.010Z,1018.36
2023-04-08T00:05:41.948Z,1018.34
2023-04-08T00:06:41.950Z,1018.34
2023-04-08T00:07:41.940Z,1018.31
2023-04-08T00:08:41.239Z,1018.36
2023-04-08T00:09:41.918Z,1018.36
2023-04-08T00:10:41.892Z,1018.30
2023-04-08T00:11:41.208Z,1018.32
2023-04-08T00:12:42.145Z,1018.31
2023-04-08T00:13:41.879Z,1018.29
2023-04-08T00:14:41.868Z,1018.36
2023-04-08T00:15:41.853Z,1018.33
2023-04-08T00:16:41.924Z,1018.32
2023-04-08T00:17:41.875Z,1018.31
2023-04-08T00:18:41.832Z,1018.32
2023-04-08T00:19:41.815Z,1018.30
2023-04-08T00:20:41.791Z,1018.34
2023-04-08T00:21:41.792Z,1018.31
2023-04-08T00:22:41.781Z,1018.31
2023-04-08T00:23:42.030Z,1018.26
2023-04-08T00:24:41.758Z,1018.30
2023-04-08T00:25:41.746Z,1018.33
2023-04-08T00:26:41.740Z,1018.33
2023-04-08T00:27:41.992Z,1018.31
2023-04-08T00:28:41.725Z,1018.35
2023-04-08T00:29:41.706Z,1018.35
2023-04-08T00:30:41.043Z,1018.35
2023-04-08T00:31:41.685Z,1018.38
2023-04-08T00:32:41.701Z,1018.35
2023-04-08T00:33:41.676Z,1018.36
2023-04-08T00:34:41.651Z,1018.36
2023-04-08T00:35:41.653Z,1018.34
2023-04-08T00:36:41.633Z,1018.36
2023-04-08T00:37:41.630Z,1018.37
2023-04-08T00:38:41.870Z,1018.31
2023-04-08T00:39:41.855Z,1018.37
2023-04-08T00:40:41.575Z,1018.37
2023-04-08T00:41:40.894Z,1018.37
2023-04-08T00:42:41.570Z,1018.38
2023-04-08T00:43:41.584Z,1018.37
2023-04-08T00:44:41.551Z,1018.33
2023-04-08T00:45:41.525Z,1018.34
2023-04-08T00:46:41.646Z,1018.31
2023-04-08T00:47:40.873Z,1018.32
2023-04-08T00:48:41.520Z,1018.32
2023-04-08T00:49:42.766Z,1018.30
2023-04-08T00:50:41.467Z,1018.33
2023-04-08T00:51:41.481Z,1018.35
2023-04-08T00:52:41.467Z,1018.35
2023-04-08T00:53:41.456Z,1018.36
2023-04-08T00:54:41.437Z,1018.35
2023-04-08T00:55:41.434Z,1018.36
2023-04-08T00:56:41.425Z,1018.40
2023-04-08T00:57:41.417Z,1018.40
2023-04-08T00:58:41.406Z,1018.40
2023-04-08T00:59:41.403Z,1018.40
2023-04-08T01:00:41.386Z,1018.39
2023-04-08T01:01:40.804Z,1018.48
2023-04-08T01:02:41.505Z,1018.47
2023-04-08T01:03:41.460Z,1018.47
2023-04-08T01:04:41.323Z,1018.46
2023-04-08T01:05:40.645Z,1018.49
2023-04-08T01:06:40.648Z,1018.47
2023-04-08T01:07:41.324Z,1018.46
2023-04-08T01:08:41.297Z,1018.49
2023-04-08T01:09:40.677Z,1018.48
2023-04-08T01:10:40.575Z,1018.45
2023-04-08T01:11:40.587Z,1018.48
2023-04-08T01:12:40.558Z,1018.50
2023-04-08T01:13:40.557Z,1018.54
2023-04-08T01:14:41.218Z,1018.51
2023-04-08T01:15:42.493Z,1018.50
2023-04-08T01:16:41.460Z,1018.52
2023-04-08T01:17:40.522Z,1018.47
2023-04-08T01:18:41.196Z,1018.46
2023-04-08T01:19:40.556Z,1018.46
2023-04-08T01:20:41.169Z,1018.49
2023-04-08T01:21:41.419Z,1018.51
2023-04-08T01:22:41.152Z,1018.51
2023-04-08T01:23:40.467Z,1018.48
2023-04-08T01:24:41.112Z,1018.48
2023-04-08T01:25:40.435Z,1018.47
2023-04-08T01:26:41.113Z,1018.46
2023-04-08T01:27:41.100Z,1018.44
2023-04-08T01:28:40.407Z,1018.48
2023-04-08T01:29:40.493Z,1018.51
2023-04-08T01:30:41.089Z,1018.49
2023-04-08T01:31:41.169Z,1018.47
2023-04-08T01:32:41.084Z,1018.46
2023-04-08T01:33:41.037Z,1018.47
2023-04-08T01:34:41.006Z,1018.44
2023-04-08T01:35:41.080Z,1018.48
2023-04-08T01:36:41.003Z,1018.47
2023-04-08T01:37:40.996Z,1018.44
2023-04-08T01:38:40.999Z,1018.46
2023-04-08T01:39:40.964Z,1018.53
2023-04-08T01:40:40.299Z,1018.52
2023-04-08T01:41:40.288Z,1018.54
2023-04-08T01:42:40.947Z,1018.60
2023-04-08T01:43:40.935Z,1018.53
2023-04-08T01:44:40.910Z,1018.57
2023-04-08T01:45:40.913Z,1018.58
2023-04-08T01:46:40.918Z,1018.57
2023-04-08T01:47:40.950Z,1018.64
2023-04-08T01:48:40.852Z,1018.64
2023-04-08T01:49:40.852Z,1018.62
2023-04-08T01:50:40.865Z,1018.67
2023-04-08T01:51:40.163Z,1018.66
2023-04-08T01:52:40.838Z,1018.71
2023-04-08T01:53:40.158Z,1018.69
2023-04-08T01:54:41.084Z,1018.70
2023-04-08T01:55:40.808Z,1018.66
2023-04-08T01:56:40.797Z,1018.72
2023-04-08T01:57:40.098Z,1018.74
2023-04-08T01:58:40.109Z,1018.72
2023-04-08T01:59:40.775Z,1018.73
2023-04-08T02:00:40.083Z,1018.77
2023-04-08T02:01:40.117Z,1018.77
2023-04-08T02:02:42.182Z,1018.73
2023-04-08T02:03:40.810Z,1018.75
2023-04-08T02:04:40.270Z,1018.72
2023-04-08T02:05:41.963Z,1018.72
2023-04-08T02:06:40.697Z,1018.72
2023-04-08T02:07:40.686Z,1018.75
2023-04-08T02:08:40.655Z,1018.72
2023-04-08T02:09:40.659Z,1018.71
2023-04-08T02:10:39.957Z,1018.73
2023-04-08T02:11:40.635Z,1018.71
2023-04-08T02:12:40.630Z,1018.72
2023-04-08T02:13:40.616Z,1018.74
2023-04-08T02:14:40.584Z,1018.71
2023-04-08T02:15:39.909Z,1018.68
2023-04-08T02:16:40.702Z,1018.69
2023-04-08T02:17:40.582Z,1018.71
2023-04-08T02:18:39.873Z,1018.69
2023-04-08T02:19:40.532Z,1018.63
2023-04-08T02:20:39.878Z,1018.65
2023-04-08T02:21:39.856Z,1018.67
2023-04-08T02:22:40.514Z,1018.66
2023-04-08T02:23:40.518Z,1018.68
2023-04-08T02:24:40.478Z,1018.64
2023-04-08T02:25:40.495Z,1018.66
2023-04-08T02:26:39.791Z,1018.67
2023-04-08T02:27:40.467Z,1018.73
2023-04-08T02:28:39.790Z,1018.73
2023-04-08T02:29:39.768Z,1018.72
2023-04-08T02:30:40.440Z,1018.75
2023-04-08T02:31:39.761Z,1018.71
2023-04-08T02:32:40.758Z,1018.69
2023-04-08T02:33:39.730Z,1018.70
2023-04-08T02:34:41.173Z,1018.71
2023-04-08T02:35:40.440Z,1018.71
2023-04-08T02:36:40.370Z,1018.70
2023-04-08T02:37:40.358Z,1018.73
2023-04-08T02:38:39.678Z,1018.76
2023-04-08T02:39:39.693Z,1018.79
2023-04-08T02:40:40.325Z,1018.83
2023-04-08T02:41:40.316Z,1018.83
2023-04-08T02:42:40.310Z,1018.84
2023-04-08T02:43:39.607Z,1018.88
2023-04-08T02:44:40.270Z,1018.88
2023-04-08T02:45:40.312Z,1018.88
2023-04-08T02:46:40.258Z,1018.91
2023-04-08T02:47:40.334Z,1018.88
2023-04-08T02:48:39.575Z,1018.86
2023-04-08T02:49:40.225Z,1018.88
2023-04-08T02:50:39.538Z,1018.89
2023-04-08T02:51:39.526Z,1018.84
2023-04-08T02:52:40.199Z,1018.85
2023-04-08T02:53:40.181Z,1018.88
2023-04-08T02:54:39.501Z,1018.92
2023-04-08T02:55:40.195Z,1018.90
2023-04-08T02:56:40.151Z,1018.92
2023-04-08T02:57:40.138Z,1018.92
2023-04-08T02:58:40.128Z,1018.94
2023-04-08T02:59:40.098Z,1018.99
2023-04-08T03:00:39.467Z,1018.98
2023-04-08T03:01:40.199Z,1019.03
2023-04-08T03:02:40.277Z,1019.03
2023-04-08T03:03:40.211Z,1019.02
2023-04-08T03:04:40.061Z,1019.03
2023-04-08T03:05:40.076Z,1019.10
2023-04-08T03:06:40.051Z,1019.08
2023-04-08T03:07:39.369Z,1019.11
2023-04-08T03:08:39.342Z,1019.11
2023-04-08T03:09:39.996Z,1019.04
2023-04-08T03:10:40.002Z,1019.05
2023-04-08T03:11:39.999Z,1019.05
2023-04-08T03:12:39.284Z,1019.06
2023-04-08T03:13:39.968Z,1019.05
2023-04-08T03:14:39.300Z,1019.10
2023-04-08T03:15:39.947Z,1019.09
2023-04-08T03:16:39.253Z,1019.09
2023-04-08T03:17:39.254Z,1019.08
2023-04-08T03:18:39.911Z,1019.08
2023-04-08T03:19:39.231Z,1019.09
2023-04-08T03:20:39.209Z,1019.08
2023-04-08T03:21:39.880Z,1019.09
2023-04-08T03:22:39.872Z,1019.09
2023-04-08T03:23:39.860Z,1019.07
2023-04-08T03:24:39.833Z,1019.07
2023-04-08T03:25:39.156Z,1019.04
2023-04-08T03:26:39.832Z,1019.08
2023-04-08T03:27:39.821Z,1019.10
2023-04-08T03:28:39.792Z,1019.07
2023-04-08T03:29:39.796Z,1019.09
2023-04-08T03:30:39.096Z,1019.07
2023-04-08T03:31:39.138Z,1019.11
2023-04-08T03:32:39.835Z,1019.07
2023-04-08T03:33:39.753Z,1019.13
2023-04-08T03:34:39.744Z,1019.07
2023-04-08T03:35:39.769Z,1019.10
2023-04-08T03:36:39.736Z,1019.12
2023-04-08T03:37:39.030Z,1019.07
2023-04-08T03:38:39.048Z,1019.06
2023-04-08T03:39:39.703Z,1019.05
2023-04-08T03:40:39.677Z,1019.04
2023-04-08T03:41:39.674Z,1019.11
2023-04-08T03:42:39.657Z,1019.06
2023-04-08T03:43:39.628Z,1019.09
2023-04-08T03:44:39.640Z,1019.06
2023-04-08T03:45:39.660Z,1019.09
2023-04-08T03:46:39.618Z,1019.05
2023-04-08T03:47:39.615Z,1019.07
2023-04-08T03:48:39.577Z,1019.06
2023-04-08T03:49:38.905Z,1019.07
2023-04-08T03:50:39.575Z,1019.02
2023-04-08T03:51:38.892Z,1018.99
2023-04-08T03:52:38.882Z,1018.99
2023-04-08T03:53:38.867Z,1018.97
2023-04-08T03:54:38.848Z,1019.05
2023-04-08T03:55:39.520Z,1019.02
2023-04-08T03:56:38.838Z,1019.05
2023-04-08T03:57:38.810Z,1019.07
2023-04-08T03:58:39.472Z,1019.05
2023-04-08T03:59:38.798Z,1018.97
2023-04-08T04:00:39.465Z,1018.99
2023-04-08T04:01:41.715Z,1018.98
2023-04-08T04:02:39.006Z,1019.01
2023-04-08T04:03:39.479Z,1019.00
2023-04-08T04:04:39.466Z,1019.00
2023-04-08T04:05:38.738Z,1019.01
2023-04-08T04:06:38.742Z,1019.02
2023-04-08T04:07:39.397Z,1019.08
2023-04-08T04:08:38.727Z,1019.11
2023-04-08T04:09:39.380Z,1019.03
2023-04-08T04:10:39.373Z,1019.11
2023-04-08T04:11:39.359Z,1019.07
2023-04-08T04:12:39.337Z,1019.06
2023-04-08T04:13:38.672Z,1019.07
2023-04-08T04:14:39.320Z,1019.09
2023-04-08T04:15:39.388Z,1019.07
2023-04-08T04:16:39.322Z,1019.08
2023-04-08T04:17:38.622Z,1019.05
2023-04-08T04:18:38.707Z,1019.10
2023-04-08T04:19:39.273Z,1019.04
2023-04-08T04:20:39.268Z,1019.06
2023-04-08T04:21:38.564Z,1019.07
2023-04-08T04:22:39.234Z,1019.07
2023-04-08T04:23:39.215Z,1019.05
2023-04-08T04:24:38.535Z,1019.08
2023-04-08T04:25:39.212Z,1019.09
2023-04-08T04:26:39.192Z,1019.12
2023-04-08T04:27:38.495Z,1019.14
2023-04-08T04:28:39.163Z,1019.14
2023-04-08T04:29:38.485Z,1019.15
2023-04-08T04:30:38.488Z,1019.20
2023-04-08T04:31:39.182Z,1019.19
2023-04-08T04:32:39.143Z,1019.15
2023-04-08T04:33:38.457Z,1019.22
2023-04-08T04:34:38.424Z,1019.22
2023-04-08T04:35:38.454Z,1019.21
2023-04-08T04:36:38.415Z,1019.23
2023-04-08T04:37:38.390Z,1019.27
2023-04-08T04:38:38.393Z,1019.27
2023-04-08T04:39:39.059Z,1019.27
2023-04-08T04:40:39.067Z,1019.23
2023-04-08T04:41:38.360Z,1019.25
2023-04-08T04:42:38.339Z,1019.26
2023-04-08T04:43:39.001Z,1019.25
2023-04-08T04:44:38.318Z,1019.27
2023-04-08T04:45:38.989Z,1019.27
2023-04-08T04:46:39.048Z,1019.27
2023-04-08T04:47:38.306Z,1019.29
2023-04-08T04:48:38.317Z,1019.27
2023-04-08T04:49:38.951Z,1019.26
2023-04-08T04:50:38.263Z,1019.28
2023-04-08T04:51:38.253Z,1019.29
2023-04-08T04:52:38.894Z,1019.30
2023-04-08T04:53:38.917Z,1019.34
2023-04-08T04:54:38.232Z,1019.33
2023-04-08T04:55:39.385Z,1019.35
2023-04-08T04:56:38.878Z,1019.37
2023-04-08T04:57:38.840Z,1019.41
2023-04-08T04:58:38.181Z,1019.44
2023-04-08T04:59:38.165Z,1019.39
2023-04-08T05:00:38.166Z,1019.41
2023-04-08T05:01:38.239Z,1019.38
2023-04-08T05:02:38.265Z,1019.39
2023-04-08T05:03:38.888Z,1019.48
2023-04-08T05:04:38.133Z,1019.46
2023-04-08T05:05:38.107Z,1019.43
2023-04-08T05:06:38.777Z,1019.42
2023-04-08T05:07:38.088Z,1019.48
2023-04-08T05:08:38.741Z,1019.51
2023-04-08T05:09:38.750Z,1019.50
2023-04-08T05:10:38.738Z,1019.49
2023-04-08T05:11:38.730Z,1019.51
2023-04-08T05:12:38.030Z,1019.51
2023-04-08T05:13:38.707Z,1019.52
2023-04-08T05:14:38.700Z,1019.58
2023-04-08T05:15:38.687Z,1019.54
2023-04-08T05:16:38.770Z,1019.51
2023-04-08T05:17:38.038Z,1019.51
2023-04-08T05:18:38.638Z,1019.58
2023-04-08T05:19:38.647Z,1019.57
2023-04-08T05:20:38.637Z,1019.62
2023-04-08T05:21:38.628Z,1019.58
2023-04-08T05:22:38.622Z,1019.55
2023-04-08T05:23:37.948Z,1019.57
2023-04-08T05:24:37.909Z,1019.56
2023-04-08T05:25:38.588Z,1019.59
2023-04-08T05:26:38.575Z,1019.60
2023-04-08T05:27:38.567Z,1019.61
2023-04-08T05:28:38.535Z,1019.62
2023-04-08T05:29:37.861Z,1019.65
2023-04-08T05:30:38.548Z,1019.67
2023-04-08T05:31:38.586Z,1019.70
2023-04-08T05:32:38.556Z,1019.70
2023-04-08T05:33:38.496Z,1019.75
2023-04-08T05:34:37.807Z,1019.79
2023-04-08T05:35:37.877Z,1019.82
2023-04-08T05:36:37.808Z,1019.82
2023-04-08T05:37:38.476Z,1019.79
2023-04-08T05:38:37.783Z,1019.85
2023-04-08T05:39:38.497Z,1019.89
2023-04-08T05:40:37.756Z,1019.86
2023-04-08T05:41:38.416Z,1019.89
2023-04-08T05:42:38.410Z,1019.88
2023-04-08T05:43:37.722Z,1019.85
2023-04-08T05:44:38.382Z,1019.86
2023-04-08T05:45:38.376Z,1019.88
2023-04-08T05:46:37.737Z,1019.87
2023-04-08T05:47:37.839Z,1019.85
2023-04-08T05:48:38.339Z,1019.81
2023-04-08T05:49:37.649Z,1019.82
2023-04-08T05:50:37.640Z,1019.83
2023-04-08T05:51:38.315Z,1019.82
2023-04-08T05:52:38.302Z,1019.84
2023-04-08T05:53:37.624Z,1019.86
2023-04-08T05:54:37.603Z,1019.87
2023-04-08T05:55:38.267Z,1019.86
2023-04-08T05:56:38.256Z,1019.87
2023-04-08T05:57:38.522Z,1019.88
2023-04-08T05:58:38.238Z,1019.88
2023-04-08T05:59:37.547Z,1019.87
2023-04-08T06:00:37.526Z,1019.90
2023-04-08T06:01:37.596Z,1019.95
2023-04-08T06:02:37.751Z,1019.97
2023-04-08T06:03:37.567Z,1019.91
2023-04-08T06:04:37.691Z,1019.90
2023-04-08T06:05:37.599Z,1019.95
2023-04-08T06:06:38.147Z,1019.93
2023-04-08T06:07:38.423Z,1019.97
2023-04-08T06:08:38.120Z,1019.97
2023-04-08T06:09:37.474Z,1019.91
2023-04-08T06:10:37.438Z,1019.93
2023-04-08T06:11:38.901Z,1019.93
2023-04-08T06:12:38.058Z,1019.95
2023-04-08T06:13:38.327Z,1019.97
2023-04-08T06:14:38.056Z,1019.99
2023-04-08T06:15:37.371Z,1020.02
2023-04-08T06:16:38.060Z,1020.00
2023-04-08T06:17:37.425Z,1020.08
2023-04-08T06:18:38.021Z,1020.04
2023-04-08T06:19:38.001Z,1020.08
2023-04-08T06:20:38.269Z,1020.09
2023-04-08T06:21:38.241Z,1020.12
2023-04-08T06:22:38.010Z,1020.16
2023-04-08T06:23:37.958Z,1020.23
2023-04-08T06:24:37.946Z,1020.18
2023-04-08T06:25:37.936Z,1020.24
2023-04-08T06:26:38.214Z,1020.24
2023-04-08T06:27:37.903Z,1020.26
2023-04-08T06:28:37.911Z,1020.26
2023-04-08T06:29:37.890Z,1020.29
2023-04-08T06:30:39.140Z,1020.28
2023-04-08T06:31:37.977Z,1020.28
2023-04-08T06:32:38.202Z,1020.31
2023-04-08T06:33:37.852Z,1020.30
2023-04-08T06:34:37.839Z,1020.29
2023-04-08T06:35:37.178Z,1020.31
2023-04-08T06:36:37.816Z,1020.32
2023-04-08T06:37:37.797Z,1020.32
2023-04-08T06:38:38.071Z,1020.33
2023-04-08T06:39:37.110Z,1020.40
2023-04-08T06:40:37.782Z,1020.40
2023-04-08T06:41:37.761Z,1020.40
2023-04-08T06:42:37.737Z,1020.43
2023-04-08T06:43:37.985Z,1020.44
2023-04-08T06:44:37.055Z,1020.43
2023-04-08T06:45:37.133Z,1020.45
2023-04-08T06:46:37.712Z,1020.43
2023-04-08T06:47:39.001Z,1020.47
2023-04-08T06:48:37.867Z,1020.45
2023-04-08T06:49:37.697Z,1020.48
2023-04-08T06:50:37.675Z,1020.55
2023-04-08T06:51:37.914Z,1020.66
2023-04-08T06:52:37.634Z,1020.64
2023-04-08T06:53:37.876Z,1020.44
2023-04-08T06:54:37.620Z,1020.47
2023-04-08T06:55:37.610Z,1020.44
2023-04-08T06:56:37.857Z,1020.42
2023-04-08T06:57:37.578Z,1020.38
2023-04-08T06:58:37.845Z,1020.35
2023-04-08T06:59:36.880Z,1020.38
2023-04-08T07:00:37.807Z,1020.43
2023-04-08T07:01:37.897Z,1020.48
2023-04-08T07:02:37.987Z,1020.56
2023-04-08T07:03:37.651Z,1020.55
2023-04-08T07:04:37.795Z,1020.62
2023-04-08T07:05:37.505Z,1020.55
2023-04-08T07:06:37.498Z,1020.55
2023-04-08T07:07:37.487Z,1020.61
2023-04-08T07:08:37.479Z,1020.66
2023-04-08T07:09:37.461Z,1020.68
2023-04-08T07:10:37.713Z,1020.72
2023-04-08T07:11:38.729Z,1020.75
2023-04-08T07:12:36.750Z,1020.82
2023-04-08T07:13:36.732Z,1020.79
2023-04-08T07:14:37.407Z,1020.81
2023-04-08T07:15:36.745Z,1020.77
2023-04-08T07:16:36.749Z,1020.76
2023-04-08T07:17:37.425Z,1020.73
2023-04-08T07:18:37.366Z,1020.75
2023-04-08T07:19:36.674Z,1020.72
2023-04-08T07:20:37.347Z,1020.76
2023-04-08T07:21:38.622Z,1020.80
2023-04-08T07:22:36.667Z,1020.78
2023-04-08T07:23:37.330Z,1020.83
2023-04-08T07:24:37.302Z,1020.82
2023-04-08T07:25:36.620Z,1020.76
2023-04-08T07:26:37.285Z,1020.78
2023-04-08T07:27:37.253Z,1020.80
2023-04-08T07:28:37.520Z,1020.79
2023-04-08T07:29:37.508Z,1020.86
2023-04-08T07:30:37.517Z,1020.82
2023-04-08T07:31:37.228Z,1020.81
2023-04-08T07:32:37.244Z,1020.86
2023-04-08T07:33:37.203Z,1020.84
2023-04-08T07:34:37.199Z,1020.84
2023-04-08T07:35:38.468Z,1020.85
2023-04-08T07:36:36.487Z,1020.87
2023-04-08T07:37:36.516Z,1020.84
2023-04-08T07:38:37.151Z,1020.89
2023-04-08T07:39:37.141Z,1020.85
2023-04-08T07:40:37.383Z,1020.89
2023-04-08T07:41:37.360Z,1020.89
2023-04-08T07:42:40.295Z,1020.86
2023-04-08T07:43:37.622Z,1020.90
2023-04-08T07:44:37.097Z,1020.90
2023-04-08T07:45:37.078Z,1020.91
2023-04-08T07:46:37.349Z,1020.93
2023-04-08T07:47:37.326Z,1020.91
2023-04-08T07:48:37.293Z,1020.84
2023-04-08T07:49:37.288Z,1020.95
2023-04-08T07:50:37.025Z,1021.00
2023-04-08T07:51:37.336Z,1021.01
2023-04-08T07:52:36.985Z,1021.02
2023-04-08T07:53:37.008Z,1021.06
2023-04-08T07:54:37.246Z,1021.08
2023-04-08T07:55:36.975Z,1021.11
2023-04-08T07:56:36.962Z,1021.13
2023-04-08T07:57:37.030Z,1021.15
2023-04-08T07:58:37.189Z,1021.07
2023-04-08T07:59:38.198Z,1021.07
2023-04-08T08:00:36.231Z,1021.08
2023-04-08T08:01:38.273Z,1021.08
2023-04-08T08:02:38.249Z,1021.13
2023-04-08T08:03:38.272Z,1021.27
2023-04-08T08:04:36.336Z,1021.23
2023-04-08T08:05:37.171Z,1021.26
2023-04-08T08:06:36.853Z,1021.30
2023-04-08T08:07:36.850Z,1021.36
2023-04-08T08:08:36.831Z,1021.37
2023-04-08T08:09:36.149Z,1021.26
2023-04-08T08:10:36.813Z,1021.31
2023-04-08T08:11:36.115Z,1021.24
2023-04-08T08:12:36.121Z,1021.19
2023-04-08T08:13:38.020Z,1021.30
2023-04-08T08:14:37.051Z,1021.27
2023-04-08T08:15:36.090Z,1021.22
2023-04-08T08:16:36.837Z,1021.29
2023-04-08T08:17:36.092Z,1021.25
2023-04-08T08:18:36.044Z,1021.21
2023-04-08T08:19:36.038Z,1021.24
2023-04-08T08:20:36.712Z,1021.26
2023-04-08T08:21:37.964Z,1021.27
2023-04-08T08:22:44.157Z,1021.26
2023-04-08T08:23:37.997Z,1021.22
2023-04-08T08:24:37.887Z,1021.27
2023-04-08T08:25:36.653Z,1021.26
2023-04-08T08:26:36.665Z,1021.33
2023-04-08T08:27:35.980Z,1021.32
2023-04-08T08:28:36.631Z,1021.35
2023-04-08T08:29:35.927Z,1021.35
2023-04-08T08:30:35.915Z,1021.37
2023-04-08T08:31:36.897Z,1021.40
2023-04-08T08:32:36.852Z,1021.46
2023-04-08T08:33:36.584Z,1021.54
2023-04-08T08:34:36.561Z,1021.60
2023-04-08T08:35:36.835Z,1021.58
2023-04-08T08:36:36.798Z,1021.58
2023-04-08T08:37:35.840Z,1021.59
2023-04-08T08:38:37.253Z,1021.65
2023-04-08T08:39:36.511Z,1021.69
2023-04-08T08:40:36.760Z,1021.64
2023-04-08T08:41:35.799Z,1021.53
2023-04-08T08:42:35.802Z,1021.53
2023-04-08T08:43:36.462Z,1021.52
2023-04-08T08:44:36.451Z,1021.54
2023-04-08T08:45:36.440Z,1021.47
2023-04-08T08:46:35.921Z,1021.51
2023-04-08T08:47:36.437Z,1021.48
2023-04-08T08:48:36.410Z,1021.54
2023-04-08T08:49:36.412Z,1021.53
2023-04-08T08:50:36.387Z,1021.54
2023-04-08T08:51:35.696Z,1021.53
2023-04-08T08:52:36.367Z,1021.53
2023-04-08T08:53:36.356Z,1021.53
2023-04-08T08:54:36.348Z,1021.51
2023-04-08T08:56:00.313Z,1021.50
2023-04-08T08:56:37.586Z,1021.49
2023-04-08T08:57:36.303Z,1021.53
2023-04-08T08:58:35.611Z,1021.54
2023-04-08T08:59:35.616Z,1021.51
2023-04-08T09:00:36.281Z,1021.58
2023-04-08T09:01:36.438Z,1021.57
2023-04-08T09:02:36.328Z,1021.58
2023-04-08T09:03:36.512Z,1021.61
2023-04-08T09:04:36.617Z,1021.62
2023-04-08T09:05:36.328Z,1021.66
2023-04-08T09:06:36.521Z,1021.70
2023-04-08T09:07:36.207Z,1021.70
2023-04-08T09:08:36.203Z,1021.71
2023-04-08T09:09:36.194Z,1021.73
2023-04-08T09:10:35.500Z,1021.73
2023-04-08T09:11:36.162Z,1021.70
2023-04-08T09:12:35.502Z,1021.74
2023-04-08T09:13:36.152Z,1021.71
2023-04-08T09:14:36.130Z,1021.73
2023-04-08T09:15:36.125Z,1021.73
2023-04-08T09:16:35.521Z,1021.74
2023-04-08T09:17:35.455Z,1021.67
2023-04-08T09:18:36.086Z,1021.65
2023-04-08T09:19:35.392Z,1021.71
2023-04-08T09:20:36.070Z,1021.71
2023-04-08T09:21:35.368Z,1021.69
2023-04-08T09:22:36.027Z,1021.65
2023-04-08T09:23:35.364Z,1021.66
2023-04-08T09:24:35.347Z,1021.64
2023-04-08T09:25:35.345Z,1021.74
2023-04-08T09:26:37.256Z,1021.69
2023-04-08T09:27:35.996Z,1021.75
2023-04-08T09:28:35.982Z,1021.70
2023-04-08T09:29:39.126Z,1021.66
2023-04-08T09:30:36.202Z,1021.71
2023-04-08T09:31:35.321Z,1021.68
2023-04-08T09:32:35.955Z,1021.72
2023-04-08T09:33:35.928Z,1021.72
2023-04-08T09:34:35.940Z,1021.67
2023-04-08T09:35:35.928Z,1021.67
2023-04-08T09:36:35.228Z,1021.67
2023-04-08T09:37:35.871Z,1021.65
2023-04-08T09:38:35.183Z,1021.71
2023-04-08T09:39:35.876Z,1021.74
2023-04-08T09:40:35.857Z,1021.66
2023-04-08T09:41:35.843Z,1021.67
2023-04-08T09:42:35.820Z,1021.66
2023-04-08T09:43:35.820Z,1021.66
2023-04-08T09:44:35.129Z,1021.68
2023-04-08T09:45:35.134Z,1021.67
2023-04-08T09:46:35.788Z,1021.71
2023-04-08T09:47:35.124Z,1021.71
2023-04-08T09:48:35.767Z,1021.69
2023-04-08T09:49:35.076Z,1021.79
2023-04-08T09:50:35.065Z,1021.76
2023-04-08T09:51:35.092Z,1021.72
2023-04-08T09:52:35.064Z,1021.74
2023-04-08T09:53:35.723Z,1021.75
2023-04-08T09:54:35.022Z,1021.74
2023-04-08T09:55:35.691Z,1021.77
2023-04-08T09:56:35.004Z,1021.75
2023-04-08T09:57:35.663Z,1021.73
2023-04-08T09:58:35.659Z,1021.70
2023-04-08T09:59:35.650Z,1021.79
2023-04-08T10:00:35.638Z,1021.77
2023-04-08T10:01:35.736Z,1021.76
2023-04-08T10:02:35.087Z,1021.73
2023-04-08T10:03:34.993Z,1021.82
2023-04-08T10:04:35.639Z,1021.79
2023-04-08T10:05:35.586Z,1021.77
2023-04-08T10:06:34.884Z,1021.79
2023-04-08T10:07:35.539Z,1021.74
2023-04-08T10:08:34.869Z,1021.77
2023-04-08T10:09:34.856Z,1021.78
2023-04-08T10:10:35.534Z,1021.74
2023-04-08T10:11:34.848Z,1021.72
2023-04-08T10:12:35.494Z,1021.77
2023-04-08T10:13:35.520Z,1021.79
2023-04-08T10:14:34.798Z,1021.78
2023-04-08T10:15:34.794Z,1021.77
2023-04-08T10:16:35.484Z,1021.78
2023-04-08T10:17:35.489Z,1021.74
2023-04-08T10:18:34.772Z,1021.69
2023-04-08T10:19:35.442Z,1021.73
2023-04-08T10:20:34.874Z,1021.71
2023-04-08T10:21:35.418Z,1021.67
2023-04-08T10:22:34.755Z,1021.73
2023-04-08T10:23:35.391Z,1021.77
2023-04-08T10:24:35.381Z,1021.76
2023-04-08T10:25:35.394Z,1021.84
2023-04-08T10:26:34.673Z,1021.77
2023-04-08T10:27:35.332Z,1021.78
2023-04-08T10:28:35.336Z,1021.83
2023-04-08T10:29:35.338Z,1021.84
2023-04-08T10:30:35.315Z,1021.76
2023-04-08T10:31:36.639Z,1021.78
2023-04-08T10:32:34.616Z,1021.79
2023-04-08T10:33:47.388Z,1021.81
2023-04-08T10:34:37.015Z,1021.79
2023-04-08T10:35:35.291Z,1021.81
2023-04-08T10:36:35.246Z,1021.84
2023-04-08T10:37:35.239Z,1021.88
2023-04-08T10:38:35.244Z,1021.85
2023-04-08T10:39:36.902Z,1021.84
2023-04-08T10:40:34.521Z,1021.84
2023-04-08T10:41:34.539Z,1021.85
2023-04-08T10:42:34.543Z,1021.82
2023-04-08T10:43:34.559Z,1021.83
2023-04-08T10:44:35.162Z,1021.86
2023-04-08T10:45:35.154Z,1021.83
2023-04-08T10:46:35.241Z,1021.85
2023-04-08T10:47:34.536Z,1021.84
2023-04-08T10:48:35.123Z,1021.85
2023-04-08T10:49:34.436Z,1021.87
2023-04-08T10:50:34.420Z,1021.89
2023-04-08T10:51:35.101Z,1021.85
2023-04-08T10:52:35.057Z,1021.86
2023-04-08T10:53:35.069Z,1021.87
2023-04-08T10:54:34.387Z,1021.85
2023-04-08T10:55:34.364Z,1021.88
2023-04-08T10:56:35.034Z,1021.84
2023-04-08T10:57:35.016Z,1021.85
2023-04-08T10:58:35.026Z,1021.86
2023-04-08T10:59:35.002Z,1021.86
2023-04-08T11:00:34.330Z,1021.89
2023-04-08T11:01:34.403Z,1021.91
2023-04-08T11:02:34.449Z,1021.96
2023-04-08T11:03:34.441Z,1021.88
2023-04-08T11:04:35.020Z,1021.92
2023-04-08T11:05:34.938Z,1021.92
2023-04-08T11:06:34.911Z,1021.96
2023-04-08T11:07:34.240Z,1021.86
2023-04-08T11:08:34.919Z,1021.93
2023-04-08T11:09:34.900Z,1021.88
2023-04-08T11:10:34.199Z,1021.86
2023-04-08T11:11:34.190Z,1021.84
2023-04-08T11:12:34.848Z,1021.88
2023-04-08T11:13:34.182Z,1021.88
2023-04-08T11:14:34.842Z,1021.90
2023-04-08T11:15:34.163Z,1021.94
2023-04-08T11:16:34.896Z,1021.90
2023-04-08T11:17:34.154Z,1021.95
2023-04-08T11:18:34.802Z,1021.97
2023-04-08T11:19:34.112Z,1021.95
2023-04-08T11:20:34.105Z,1021.88
2023-04-08T11:21:34.084Z,1021.92
2023-04-08T11:22:34.747Z,1021.89
2023-04-08T11:23:34.753Z,1021.87
2023-04-08T11:24:34.057Z,1021.88
2023-04-08T11:25:34.049Z,1021.83
2023-04-08T11:26:34.726Z,1021.84
2023-04-08T11:27:34.688Z,1021.85
2023-04-08T11:28:34.020Z,1021.85
2023-04-08T11:29:34.029Z,1021.85
2023-04-08T11:30:34.679Z,1021.83
2023-04-08T11:31:34.051Z,1021.86
2023-04-08T11:32:33.996Z,1021.83
2023-04-08T11:33:33.959Z,1021.81
2023-04-08T11:34:34.638Z,1021.86
2023-04-08T11:35:33.996Z,1021.84
2023-04-08T11:36:34.595Z,1021.84
2023-04-08T11:37:34.600Z,1021.82
2023-04-08T11:38:33.910Z,1021.80
2023-04-08T11:39:34.580Z,1021.84
2023-04-08T11:40:33.890Z,1021.82
2023-04-08T11:41:34.554Z,1021.86
2023-04-08T11:42:34.524Z,1021.83
2023-04-08T11:43:34.529Z,1021.85
2023-04-08T11:44:34.530Z,1021.87
2023-04-08T11:45:34.510Z,1021.85
2023-04-08T11:46:34.515Z,1021.93
2023-04-08T11:47:34.505Z,1021.86
2023-04-08T11:48:34.480Z,1021.88
2023-04-08T11:49:34.469Z,1021.84
2023-04-08T11:50:34.454Z,1021.86
2023-04-08T11:51:34.446Z,1021.82
2023-04-08T11:52:33.779Z,1021.87
2023-04-08T11:53:34.430Z,1021.85
2023-04-08T11:54:34.411Z,1021.85
2023-04-08T11:55:33.723Z,1021.80
2023-04-08T11:56:33.726Z,1021.82
2023-04-08T11:57:33.710Z,1021.77
2023-04-08T11:58:33.688Z,1021.80
2023-04-08T11:59:33.678Z,1021.86
2023-04-08T12:00:34.350Z,1021.90
2023-04-08T12:01:34.361Z,1021.84
2023-04-08T12:02:33.742Z,1021.86
2023-04-08T12:03:34.428Z,1021.85
2023-04-08T12:04:34.430Z,1021.93
2023-04-08T12:05:33.601Z,1021.99